sensor_id;sensor_type;location;lat;lon;timestamp;pressure;altitude;pressure_sealevel;temperature;humidity
68399;BME280;56258;52.196;13.868;2022-09-23T00:00:48;101850.19;;;16.36;56.32
68399;BME280;56258;52.196;13.868;2022-09-23T00:03:15;101844.88;;;16.46;56.57
68399;BME280;56258;52.196;13.868;2022-09-23T00:05:42;101841.72;;;16.41;56.67
68399;BME280;56258;52.196;13.868;2022-09-23T00:08:10;101843.09;;;16.35;56.45
68399;BME280;56258;52.196;13.868;2022-09-23T00:10:38;101843.09;;;16.35;56.53
68399;BME280;56258;52.196;13.868;2022-09-23T00:13:23;101841.53;;;16.32;56.90
68399;BME280;56258;52.196;13.868;2022-09-23T00:16:11;101838.88;;;16.32;56.61
68399;BME280;56258;52.196;13.868;2022-09-23T00:18:39;101840.81;;;16.30;56.31
68399;BME280;56258;52.196;13.868;2022-09-23T00:21:08;101833.03;;;16.27;56.93
68399;BME280;56258;52.196;13.868;2022-09-23T00:23:36;101835.28;;;16.32;57.02
68399;BME280;56258;52.196;13.868;2022-09-23T00:26:04;101829.94;;;16.32;56.64
68399;BME280;56258;52.196;13.868;2022-09-23T00:28:31;101832.03;;;16.28;57.04
68399;BME280;56258;52.196;13.868;2022-09-23T00:31:10;101826.81;;;16.27;56.70
68399;BME280;56258;52.196;13.868;2022-09-23T00:33:37;101833.03;;;16.27;56.25
68399;BME280;56258;52.196;13.868;2022-09-23T00:36:08;101828.91;;;16.23;57.16
68399;BME280;56258;52.196;13.868;2022-09-23T00:38:41;101821.84;;;16.22;56.76
68399;BME280;56258;52.196;13.868;2022-09-23T00:41:08;101816.78;;;16.29;56.18
68399;BME280;56258;52.196;13.868;2022-09-23T00:43:44;101810.56;;;16.28;56.38
68399;BME280;56258;52.196;13.868;2022-09-23T00:46:17;101803.50;;;16.27;56.65
68399;BME280;56258;52.196;13.868;2022-09-23T00:48:47;101806.34;;;16.26;56.69
68399;BME280;56258;52.196;13.868;2022-09-23T00:51:19;101805.28;;;16.17;56.74
68399;BME280;56258;52.196;13.868;2022-09-23T00:53:50;101809.53;;;16.20;57.08
68399;BME280;56258;52.196;13.868;2022-09-23T00:56:20;101803.31;;;16.19;56.60
68399;BME280;56258;52.196;13.868;2022-09-23T00:58:48;101810.94;;;16.14;57.14
68399;BME280;56258;52.196;13.868;2022-09-23T01:01:16;101798.22;;;16.16;56.49
68399;BME280;56258;52.196;13.868;2022-09-23T01:03:44;101795.59;;;16.26;56.80
68399;BME280;56258;52.196;13.868;2022-09-23T01:06:12;101794.75;;;16.25;56.32
68399;BME280;56258;52.196;13.868;2022-09-23T01:08:40;101796.84;;;16.22;56.96
68399;BME280;56258;52.196;13.868;2022-09-23T01:11:29;101793.91;;;16.25;56.32
68399;BME280;56258;52.196;13.868;2022-09-23T01:17:34;101787.34;;;16.18;56.70
68399;BME280;56258;52.196;13.868;2022-09-23T01:20:20;101795.25;;;16.10;56.77
68399;BME280;56258;52.196;13.868;2022-09-23T01:31:50;101781.16;;;15.96;57.16
68399;BME280;56258;52.196;13.868;2022-09-23T01:34:54;101775.41;;;16.01;56.85
68399;BME280;56258;52.196;13.868;2022-09-23T01:37:45;101770.06;;;16.01;56.88
68399;BME280;56258;52.196;13.868;2022-09-23T01:40:32;101769.34;;;15.99;57.45
68399;BME280;56258;52.196;13.868;2022-09-23T01:43:08;101762.00;;;16.01;57.53
68399;BME280;56258;52.196;13.868;2022-09-23T01:45:45;101766.91;;;15.96;57.38
68399;BME280;56258;52.196;13.868;2022-09-23T01:48:52;101763.56;;;16.03;57.02
68399;BME280;56258;52.196;13.868;2022-09-23T01:51:15;101769.34;;;15.99;57.26
68399;BME280;56258;52.196;13.868;2022-09-23T01:54:10;101763.44;;;16.05;56.77
68399;BME280;56258;52.196;13.868;2022-09-23T01:56:46;101758.06;;;16.05;56.89
68399;BME280;56258;52.196;13.868;2022-09-23T01:59:29;101762.00;;;16.01;56.91
68399;BME280;56258;52.196;13.868;2022-09-23T02:05:01;101753.53;;;16.05;56.42
68399;BME280;56258;52.196;13.868;2022-09-23T02:07:57;101751.84;;;16.04;56.95
68399;BME280;56258;52.196;13.868;2022-09-23T02:10:52;101756.91;;;15.98;57.03
68399;BME280;56258;52.196;13.868;2022-09-23T02:13:30;101754.34;;;15.96;57.00
68399;BME280;56258;52.196;13.868;2022-09-23T02:16:02;101749.44;;;16.01;56.51
68399;BME280;56258;52.196;13.868;2022-09-23T02:18:35;101742.97;;;16.04;56.91
68399;BME280;56258;52.196;13.868;2022-09-23T02:21:06;101746.81;;;16.11;56.15
68399;BME280;56258;52.196;13.868;2022-09-23T02:23:42;101740.84;;;16.08;56.42
68399;BME280;56258;52.196;13.868;2022-09-23T02:29:04;101740.56;;;16.01;56.76
68399;BME280;56258;52.196;13.868;2022-09-23T02:31:56;101740.69;;;15.99;56.45
68399;BME280;56258;52.196;13.868;2022-09-23T02:34:44;101736.31;;;15.98;56.55
68399;BME280;56258;52.196;13.868;2022-09-23T02:40:30;101728.63;;;15.94;56.79
68399;BME280;56258;52.196;13.868;2022-09-23T02:43:16;101732.31;;;15.93;56.88
68399;BME280;56258;52.196;13.868;2022-09-23T02:45:46;101728.13;;;15.79;57.28
68399;BME280;56258;52.196;13.868;2022-09-23T02:48:21;101731.81;;;15.78;57.42
68399;BME280;56258;52.196;13.868;2022-09-23T02:50:49;101728.78;;;15.71;57.50
68399;BME280;56258;52.196;13.868;2022-09-23T02:53:15;101733.44;;;15.69;57.24
68399;BME280;56258;52.196;13.868;2022-09-23T02:55:42;101714.53;;;15.71;57.36
68399;BME280;56258;52.196;13.868;2022-09-23T02:58:11;101714.47;;;15.82;57.03
68399;BME280;56258;52.196;13.868;2022-09-23T03:07:02;101716.28;;;15.82;56.77
68399;BME280;56258;52.196;13.868;2022-09-23T03:09:40;101710.28;;;15.89;57.04
68399;BME280;56258;52.196;13.868;2022-09-23T03:12:21;101706.47;;;15.92;56.86
68399;BME280;56258;52.196;13.868;2022-09-23T03:14:56;101706.16;;;15.85;57.42
68399;BME280;56258;52.196;13.868;2022-09-23T03:17:30;101700.06;;;15.83;57.33
68399;BME280;56258;52.196;13.868;2022-09-23T03:20:06;101708.59;;;15.88;57.54
68399;BME280;56258;52.196;13.868;2022-09-23T03:22:39;101701.81;;;15.94;57.46
68399;BME280;56258;52.196;13.868;2022-09-23T03:25:12;101702.38;;;15.88;57.96
68399;BME280;56258;52.196;13.868;2022-09-23T03:27:40;101707.00;;;15.86;57.37
68399;BME280;56258;52.196;13.868;2022-09-23T03:30:09;101700.41;;;15.90;57.76
68399;BME280;56258;52.196;13.868;2022-09-23T03:32:37;101704.50;;;15.94;57.64
68399;BME280;56258;52.196;13.868;2022-09-23T03:35:05;101691.94;;;15.94;57.90
68399;BME280;56258;52.196;13.868;2022-09-23T03:37:35;101691.09;;;15.94;57.90
68399;BME280;56258;52.196;13.868;2022-09-23T03:40:14;101694.63;;;15.94;57.79
68399;BME280;56258;52.196;13.868;2022-09-23T03:42:41;101698.16;;;15.95;57.31
68399;BME280;56258;52.196;13.868;2022-09-23T03:45:11;101694.63;;;15.94;57.50
68399;BME280;56258;52.196;13.868;2022-09-23T03:47:39;101678.53;;;15.94;57.87
68399;BME280;56258;52.196;13.868;2022-09-23T03:50:07;101684.59;;;15.96;57.56
68399;BME280;56258;52.196;13.868;2022-09-23T03:52:34;101685.72;;;15.94;57.72
68399;BME280;56258;52.196;13.868;2022-09-23T03:55:01;101682.91;;;15.95;57.76
68399;BME280;56258;52.196;13.868;2022-09-23T03:57:27;101682.78;;;15.97;57.50
68399;BME280;56258;52.196;13.868;2022-09-23T03:59:54;101679.38;;;15.95;57.51
68399;BME280;56258;52.196;13.868;2022-09-23T04:02:21;101676.00;;;15.93;57.41
68399;BME280;56258;52.196;13.868;2022-09-23T04:04:47;101679.13;;;15.98;57.34
68399;BME280;56258;52.196;13.868;2022-09-23T04:07:15;101668.13;;;16.01;57.89
68399;BME280;56258;52.196;13.868;2022-09-23T04:09:41;101664.00;;;15.97;57.72
68399;BME280;56258;52.196;13.868;2022-09-23T04:12:12;101669.38;;;15.97;57.88
68399;BME280;56258;52.196;13.868;2022-09-23T04:14:40;101663.03;;;15.98;57.92
68399;BME280;56258;52.196;13.868;2022-09-23T04:17:07;101664.84;;;15.97;58.21
68399;BME280;56258;52.196;13.868;2022-09-23T04:19:34;101657.06;;;15.94;58.34
68399;BME280;56258;52.196;13.868;2022-09-23T04:22:00;101668.41;;;15.98;58.07
68399;BME280;56258;52.196;13.868;2022-09-23T04:24:27;101664.97;;;15.96;57.95
68399;BME280;56258;52.196;13.868;2022-09-23T04:26:54;101665.72;;;15.98;57.67
68399;BME280;56258;52.196;13.868;2022-09-23T04:29:23;101655.84;;;15.98;58.01
68399;BME280;56258;52.196;13.868;2022-09-23T04:31:50;101658.63;;;15.97;57.52
68399;BME280;56258;52.196;13.868;2022-09-23T04:34:17;101663.28;;;15.95;57.98
68399;BME280;56258;52.196;13.868;2022-09-23T04:36:45;101650.59;;;15.97;57.82
68399;BME280;56258;52.196;13.868;2022-09-23T04:39:14;101657.94;;;15.95;57.50
68399;BME280;56258;52.196;13.868;2022-09-23T04:41:44;101655.00;;;15.98;57.76
68399;BME280;56258;52.196;13.868;2022-09-23T04:44:12;101661.31;;;15.97;57.79
68399;BME280;56258;52.196;13.868;2022-09-23T04:46:42;101656.94;;;15.96;57.79
68399;BME280;56258;52.196;13.868;2022-09-23T04:49:13;101657.75;;;16.27;57.28
68399;BME280;56258;52.196;13.868;2022-09-23T04:51:39;101655.59;;;16.61;58.17
68399;BME280;56258;52.196;13.868;2022-09-23T04:54:09;101651.81;;;16.73;57.71
68399;BME280;56258;52.196;13.868;2022-09-23T04:56:37;101653.38;;;16.85;57.58
68399;BME280;56258;52.196;13.868;2022-09-23T04:59:05;101649.84;;;16.95;56.43
68399;BME280;56258;52.196;13.868;2022-09-23T05:01:33;101652.94;;;16.90;56.74
68399;BME280;56258;52.196;13.868;2022-09-23T05:04:05;101649.69;;;16.86;56.36
68399;BME280;56258;52.196;13.868;2022-09-23T05:06:34;101651.38;;;16.87;56.66
68399;BME280;56258;52.196;13.868;2022-09-23T05:09:03;101650.41;;;16.88;55.61
68399;BME280;56258;52.196;13.868;2022-09-23T05:11:31;101644.91;;;16.80;55.81
68399;BME280;56258;52.196;13.868;2022-09-23T05:13:58;101644.31;;;16.77;56.02
68399;BME280;56258;52.196;13.868;2022-09-23T05:16:25;101641.78;;;16.85;55.46
68399;BME280;56258;52.196;13.868;2022-09-23T05:18:52;101646.16;;;16.76;55.94
68399;BME280;56258;52.196;13.868;2022-09-23T05:21:22;101644.31;;;16.77;55.64
68399;BME280;56258;52.196;13.868;2022-09-23T05:23:53;101642.63;;;16.76;55.38
68399;BME280;56258;52.196;13.868;2022-09-23T05:26:22;101657.59;;;16.78;54.97
68399;BME280;56258;52.196;13.868;2022-09-23T05:28:51;101641.50;;;16.69;55.38
68399;BME280;56258;52.196;13.868;2022-09-23T05:31:21;101654.28;;;16.55;55.34
68399;BME280;56258;52.196;13.868;2022-09-23T05:33:50;101660.38;;;16.48;55.91
68399;BME280;56258;52.196;13.868;2022-09-23T05:36:21;101654.41;;;16.34;56.13
68399;BME280;56258;52.196;13.868;2022-09-23T05:38:49;101649.53;;;16.19;56.80
68399;BME280;56258;52.196;13.868;2022-09-23T05:41:18;101654.63;;;16.12;57.02
68399;BME280;56258;52.196;13.868;2022-09-23T05:43:46;101649.50;;;16.09;56.77
68399;BME280;56258;52.196;13.868;2022-09-23T05:46:17;101656.00;;;16.07;56.79
68399;BME280;56258;52.196;13.868;2022-09-23T05:48:44;101650.91;;;16.03;57.02
68399;BME280;56258;52.196;13.868;2022-09-23T05:51:21;101650.59;;;15.97;57.09
68399;BME280;56258;52.196;13.868;2022-09-23T05:53:55;101646.06;;;15.88;57.00
68399;BME280;56258;52.196;13.868;2022-09-23T05:56:25;101645.50;;;15.94;57.13
68399;BME280;56258;52.196;13.868;2022-09-23T05:58:54;101649.03;;;15.94;56.88
68399;BME280;56258;52.196;13.868;2022-09-23T06:01:24;101653.81;;;15.91;57.06
68399;BME280;56258;52.196;13.868;2022-09-23T06:03:52;101650.69;;;15.86;57.16
68399;BME280;56258;52.196;13.868;2022-09-23T06:06:23;101651.41;;;15.88;57.16
68399;BME280;56258;52.196;13.868;2022-09-23T06:08:51;101653.97;;;15.89;57.29
68399;BME280;56258;52.196;13.868;2022-09-23T06:11:18;101653.13;;;15.89;57.10
68399;BME280;56258;52.196;13.868;2022-09-23T06:13:46;101647.75;;;15.89;57.31
68399;BME280;56258;52.196;13.868;2022-09-23T06:16:15;101649.97;;;15.84;57.05
68399;BME280;56258;52.196;13.868;2022-09-23T06:18:43;101653.38;;;15.86;56.81
68399;BME280;56258;52.196;13.868;2022-09-23T06:21:14;101662.41;;;15.85;56.85
68399;BME280;56258;52.196;13.868;2022-09-23T06:23:42;101657.03;;;15.85;56.89
68399;BME280;56258;52.196;13.868;2022-09-23T06:26:11;101649.97;;;15.84;56.82
68399;BME280;56258;52.196;13.868;2022-09-23T06:28:40;101662.16;;;15.88;56.76
68399;BME280;56258;52.196;13.868;2022-09-23T06:31:13;101653.38;;;15.86;56.81
68399;BME280;56258;52.196;13.868;2022-09-23T06:33:42;101658.88;;;15.84;56.51
68399;BME280;56258;52.196;13.868;2022-09-23T06:36:10;101656.31;;;15.83;56.72
68399;BME280;56258;52.196;13.868;2022-09-23T06:38:41;101660.69;;;15.84;56.59
68399;BME280;56258;52.196;13.868;2022-09-23T06:41:11;101650.25;;;15.81;56.66
68399;BME280;56258;52.196;13.868;2022-09-23T06:43:38;101655.19;;;15.75;56.51
68399;BME280;56258;52.196;13.868;2022-09-23T06:46:06;101655.41;;;15.72;57.01
68399;BME280;56258;52.196;13.868;2022-09-23T06:48:33;101655.56;;;15.71;56.95
68399;BME280;56258;52.196;13.868;2022-09-23T06:51:02;101651.66;;;15.75;56.95
68399;BME280;56258;52.196;13.868;2022-09-23T06:53:30;101654.91;;;15.79;57.16
68399;BME280;56258;52.196;13.868;2022-09-23T06:55:59;101654.25;;;15.86;56.63
68399;BME280;56258;52.196;13.868;2022-09-23T06:58:28;101658.16;;;15.82;56.58
68399;BME280;56258;52.196;13.868;2022-09-23T07:01:06;101658.16;;;15.82;56.74
68399;BME280;56258;52.196;13.868;2022-09-23T07:03:34;101651.94;;;15.82;56.74
68399;BME280;56258;52.196;13.868;2022-09-23T07:06:01;101649.41;;;15.80;56.71
68399;BME280;56258;52.196;13.868;2022-09-23T07:08:29;101649.97;;;15.84;56.63
68399;BME280;56258;52.196;13.868;2022-09-23T07:10:58;101656.31;;;15.83;56.62
68399;BME280;56258;52.196;13.868;2022-09-23T07:13:25;101663.13;;;15.87;56.36
68399;BME280;56258;52.196;13.868;2022-09-23T07:15:57;101657.88;;;15.85;56.74
68399;BME280;56258;52.196;13.868;2022-09-23T07:18:25;101664.84;;;15.88;56.09
68399;BME280;56258;52.196;13.868;2022-09-23T07:20:53;101661.31;;;15.87;56.32
68399;BME280;56258;52.196;13.868;2022-09-23T07:23:26;101660.03;;;15.91;56.20
68399;BME280;56258;52.196;13.868;2022-09-23T07:25:57;101669.06;;;15.90;56.01
68399;BME280;56258;52.196;13.868;2022-09-23T07:28:24;101659.06;;;15.92;56.18
68399;BME280;56258;52.196;13.868;2022-09-23T07:30:53;101657.22;;;15.93;56.08
68399;BME280;56258;52.196;13.868;2022-09-23T07:33:26;101662.41;;;15.85;56.49
68399;BME280;56258;52.196;13.868;2022-09-23T07:36:03;101663.38;;;15.84;56.44
68399;BME280;56258;52.196;13.868;2022-09-23T07:38:30;101670.00;;;15.80;56.22
68399;BME280;56258;52.196;13.868;2022-09-23T07:41:05;101669.72;;;15.83;56.46
68399;BME280;56258;52.196;13.868;2022-09-23T07:43:32;101667.09;;;15.92;56.09
68399;BME280;56258;52.196;13.868;2022-09-23T07:46:05;101664.56;;;15.91;56.11
68399;BME280;56258;52.196;13.868;2022-09-23T07:48:34;101661.47;;;15.95;55.79
68399;BME280;56258;52.196;13.868;2022-09-23T07:51:22;101670.09;;;15.99;55.79
68399;BME280;56258;52.196;13.868;2022-09-23T07:53:50;101676.31;;;15.99;55.44
68399;BME280;56258;52.196;13.868;2022-09-23T07:56:18;101673.50;;;16.01;55.85
68399;BME280;56258;52.196;13.868;2022-09-23T07:58:46;101667.72;;;16.05;55.47
68399;BME280;56258;52.196;13.868;2022-09-23T08:01:32;101653.44;;;16.05;56.23
68399;BME280;56258;52.196;13.868;2022-09-23T08:04:14;101657.13;;;16.04;55.71
68399;BME280;56258;52.196;13.868;2022-09-23T08:06:44;101657.44;;;16.11;55.14
68399;BME280;56258;52.196;13.868;2022-09-23T08:09:11;101659.03;;;16.23;55.22
68399;BME280;56258;52.196;13.868;2022-09-23T08:11:39;101665.28;;;16.33;54.55
68399;BME280;56258;52.196;13.868;2022-09-23T08:14:09;101659.50;;;16.38;54.99
68399;BME280;56258;52.196;13.868;2022-09-23T08:16:36;101662.91;;;16.49;53.97
68399;BME280;56258;52.196;13.868;2022-09-23T08:19:02;101658.19;;;16.82;54.07
68399;BME280;56258;52.196;13.868;2022-09-23T08:21:30;101656.91;;;17.15;52.99
68399;BME280;56258;52.196;13.868;2022-09-23T08:23:57;101649.84;;;17.80;50.89
68399;BME280;56258;52.196;13.868;2022-09-23T08:26:24;101654.13;;;18.37;48.70
68399;BME280;56258;52.196;13.868;2022-09-23T08:28:51;101650.22;;;18.77;48.08
68399;BME280;56258;52.196;13.868;2022-09-23T08:31:22;101649.81;;;18.90;47.86
68399;BME280;56258;52.196;13.868;2022-09-23T08:33:56;101641.19;;;19.04;47.11
68399;BME280;56258;52.196;13.868;2022-09-23T08:36:24;101651.09;;;19.21;46.74
68399;BME280;56258;52.196;13.868;2022-09-23T08:38:51;101646.91;;;19.45;46.08
68399;BME280;56258;52.196;13.868;2022-09-23T08:44:18;101649.88;;;19.86;45.04
68399;BME280;56258;52.196;13.868;2022-09-23T08:46:55;101636.44;;;20.02;45.04
68399;BME280;56258;52.196;13.868;2022-09-23T08:49:35;101637.63;;;19.99;44.78
68399;BME280;56258;52.196;13.868;2022-09-23T08:52:17;101635.28;;;20.04;44.45
68399;BME280;56258;52.196;13.868;2022-09-23T08:54:46;101625.84;;;20.08;44.19
68399;BME280;56258;52.196;13.868;2022-09-23T08:57:36;101625.28;;;20.39;43.57
68399;BME280;56258;52.196;13.868;2022-09-23T09:00:05;101626.72;;;20.67;43.04
68399;BME280;56258;52.196;13.868;2022-09-23T09:02:34;101625.25;;;20.97;42.52
68399;BME280;56258;52.196;13.868;2022-09-23T09:05:06;101615.78;;;21.10;42.01
68399;BME280;56258;52.196;13.868;2022-09-23T09:07:37;101616.44;;;21.36;41.12
68399;BME280;56258;52.196;13.868;2022-09-23T09:12:53;101614.63;;;21.84;40.24
68399;BME280;56258;52.196;13.868;2022-09-23T09:15:26;101609.81;;;22.10;39.75
68399;BME280;56258;52.196;13.868;2022-09-23T09:18:04;101606.38;;;22.25;39.29
68399;BME280;56258;52.196;13.868;2022-09-23T09:23:20;101607.34;;;22.55;38.76
68399;BME280;56258;52.196;13.868;2022-09-23T09:25:51;101608.69;;;22.82;38.19
68399;BME280;56258;52.196;13.868;2022-09-23T09:28:22;101598.44;;;23.15;37.55
68399;BME280;56258;52.196;13.868;2022-09-23T09:30:55;101593.50;;;23.33;37.11
68399;BME280;56258;52.196;13.868;2022-09-23T09:33:35;101590.16;;;23.46;37.14
68399;BME280;56258;52.196;13.868;2022-09-23T09:36:20;101590.47;;;23.66;36.42
68399;BME280;56258;52.196;13.868;2022-09-23T09:38:48;101578.88;;;23.86;35.99
68399;BME280;56258;52.196;13.868;2022-09-23T09:41:17;101586.06;;;23.79;36.34
68399;BME280;56258;52.196;13.868;2022-09-23T09:43:47;101580.75;;;23.86;36.00
68399;BME280;56258;52.196;13.868;2022-09-23T09:46:35;101572.66;;;23.93;35.90
68399;BME280;56258;52.196;13.868;2022-09-23T09:49:28;101574.16;;;23.95;35.72
68399;BME280;56258;52.196;13.868;2022-09-23T09:52:17;101572.22;;;24.25;35.26
68399;BME280;56258;52.196;13.868;2022-09-23T09:54:44;101573.19;;;24.32;35.17
68399;BME280;56258;52.196;13.868;2022-09-23T09:57:32;101566.69;;;24.76;34.61
68399;BME280;56258;52.196;13.868;2022-09-23T10:00:29;101568.66;;;25.04;33.77
68399;BME280;56258;52.196;13.868;2022-09-23T10:03:24;101562.22;;;25.39;33.19
68399;BME280;56258;52.196;13.868;2022-09-23T10:05:51;101562.69;;;25.49;32.73
68399;BME280;56258;52.196;13.868;2022-09-23T10:13:25;101551.72;;;24.87;34.42
68399;BME280;56258;52.196;13.868;2022-09-23T10:15:53;101555.16;;;25.17;33.78
68399;BME280;56258;52.196;13.868;2022-09-23T10:18:47;101547.97;;;25.78;32.82
68399;BME280;56258;52.196;13.868;2022-09-23T10:21:16;101545.81;;;26.08;32.55
68399;BME280;56258;52.196;13.868;2022-09-23T10:23:54;101544.63;;;26.37;31.75
68399;BME280;56258;52.196;13.868;2022-09-23T10:26:30;101544.06;;;26.55;31.57
68399;BME280;56258;52.196;13.868;2022-09-23T10:29:01;101543.94;;;25.33;33.34
68399;BME280;56258;52.196;13.868;2022-09-23T10:31:33;101538.22;;;24.72;34.67
68399;BME280;56258;52.196;13.868;2022-09-23T10:34:01;101535.97;;;25.66;33.32
68399;BME280;56258;52.196;13.868;2022-09-23T10:36:30;101544.53;;;25.63;33.17
68399;BME280;56258;52.196;13.868;2022-09-23T10:39:00;101544.81;;;24.41;35.24
68399;BME280;56258;52.196;13.868;2022-09-23T10:42:03;101538.72;;;22.85;38.52
68399;BME280;56258;52.196;13.868;2022-09-23T10:48:07;101539.03;;;21.19;41.50
68399;BME280;56258;52.196;13.868;2022-09-23T10:50:50;101535.19;;;20.89;42.11
68399;BME280;56258;52.196;13.868;2022-09-23T10:53:54;101532.00;;;20.61;43.34
68399;BME280;56258;52.196;13.868;2022-09-23T10:56:35;101531.91;;;20.36;44.09
68399;BME280;56258;52.196;13.868;2022-09-23T11:02:19;101523.59;;;20.14;44.45
68399;BME280;56258;52.196;13.868;2022-09-23T11:13:36;101516.66;;;19.95;45.14
68399;BME280;56258;52.196;13.868;2022-09-23T11:24:50;101496.16;;;20.26;44.47
68399;BME280;56258;52.196;13.868;2022-09-23T11:30:12;101483.53;;;20.84;42.95
68399;BME280;56258;52.196;13.868;2022-09-23T11:33:02;101483.00;;;20.72;43.00
68399;BME280;56258;52.196;13.868;2022-09-23T11:35:44;101488.03;;;21.00;42.93
68399;BME280;56258;52.196;13.868;2022-09-23T11:38:19;101481.66;;;20.76;43.05
68399;BME280;56258;52.196;13.868;2022-09-23T11:40:55;101479.16;;;22.08;40.62
68399;BME280;56258;52.196;13.868;2022-09-23T11:43:25;101481.59;;;22.87;38.45
68399;BME280;56258;52.196;13.868;2022-09-23T11:46:01;101478.03;;;23.01;37.79
68399;BME280;56258;52.196;13.868;2022-09-23T11:48:52;101465.44;;;22.33;39.39
68399;BME280;56258;52.196;13.868;2022-09-23T11:51:29;101465.19;;;22.20;39.80
68399;BME280;56258;52.196;13.868;2022-09-23T11:54:20;101461.69;;;21.57;40.82
68399;BME280;56258;52.196;13.868;2022-09-23T11:56:52;101455.63;;;20.91;43.11
68399;BME280;56258;52.196;13.868;2022-09-23T11:59:40;101451.22;;;20.82;42.93
68399;BME280;56258;52.196;13.868;2022-09-23T12:05:33;101439.88;;;22.12;40.45
68399;BME280;56258;52.196;13.868;2022-09-23T12:27:14;101428.81;;;21.68;41.00
68399;BME280;56258;52.196;13.868;2022-09-23T12:29:49;101419.69;;;21.61;40.99
68399;BME280;56258;52.196;13.868;2022-09-23T12:32:18;101426.72;;;21.78;41.28
68399;BME280;56258;52.196;13.868;2022-09-23T12:34:46;101415.91;;;22.01;40.47
68399;BME280;56258;52.196;13.868;2022-09-23T12:37:33;101416.63;;;22.18;40.76
68399;BME280;56258;52.196;13.868;2022-09-23T12:40:08;101410.75;;;22.15;40.16
68399;BME280;56258;52.196;13.868;2022-09-23T12:42:45;101402.44;;;22.16;40.16
68399;BME280;56258;52.196;13.868;2022-09-23T12:48:24;101407.38;;;22.50;39.70
68399;BME280;56258;52.196;13.868;2022-09-23T12:51:12;101410.63;;;22.46;39.67
68399;BME280;56258;52.196;13.868;2022-09-23T12:53:51;101403.88;;;22.27;40.35
68399;BME280;56258;52.196;13.868;2022-09-23T13:03:47;101386.97;;;22.25;40.63
68399;BME280;56258;52.196;13.868;2022-09-23T13:06:48;101385.59;;;22.43;40.46
68399;BME280;56258;52.196;13.868;2022-09-23T13:09:21;101389.91;;;22.53;40.38
68399;BME280;56258;52.196;13.868;2022-09-23T13:11:51;101378.72;;;22.70;39.76
68399;BME280;56258;52.196;13.868;2022-09-23T13:14:22;101383.53;;;22.83;39.74
68399;BME280;56258;52.196;13.868;2022-09-23T13:16:54;101374.22;;;22.78;40.19
68399;BME280;56258;52.196;13.868;2022-09-23T13:27:10;101375.38;;;22.31;40.48
68399;BME280;56258;52.196;13.868;2022-09-23T13:29:57;101365.34;;;21.94;41.26
68399;BME280;56258;52.196;13.868;2022-09-23T13:32:28;101367.63;;;22.05;41.83
68399;BME280;56258;52.196;13.868;2022-09-23T13:37:47;101352.28;;;22.58;40.97
68399;BME280;56258;52.196;13.868;2022-09-23T13:40:23;101343.31;;;22.72;40.78
68399;BME280;56258;52.196;13.868;2022-09-23T13:42:56;101341.13;;;22.67;40.52
68399;BME280;56258;52.196;13.868;2022-09-23T13:45:25;101343.28;;;22.57;40.16
68399;BME280;56258;52.196;13.868;2022-09-23T13:47:59;101343.53;;;22.33;40.99
68399;BME280;56258;52.196;13.868;2022-09-23T13:50:28;101340.75;;;22.26;40.90
68399;BME280;56258;52.196;13.868;2022-09-23T13:53:05;101337.97;;;22.49;40.80
68399;BME280;56258;52.196;13.868;2022-09-23T13:55:35;101336.19;;;22.56;40.83
68399;BME280;56258;52.196;13.868;2022-09-23T13:58:19;101330.22;;;22.76;40.58
68399;BME280;56258;52.196;13.868;2022-09-23T14:00:47;101325.81;;;22.89;40.22
68399;BME280;56258;52.196;13.868;2022-09-23T14:05:47;101309.56;;;23.04;39.75
68399;BME280;56258;52.196;13.868;2022-09-23T14:08:14;101308.34;;;23.07;39.69
68399;BME280;56258;52.196;13.868;2022-09-23T14:10:43;101313.75;;;23.07;39.45
68399;BME280;56258;52.196;13.868;2022-09-23T14:13:30;101312.06;;;23.06;39.79
68399;BME280;56258;52.196;13.868;2022-09-23T14:16:00;101314.16;;;22.89;39.82
68399;BME280;56258;52.196;13.868;2022-09-23T14:18:37;101309.47;;;22.38;40.56
68399;BME280;56258;52.196;13.868;2022-09-23T14:21:05;101308.22;;;22.11;41.84
68399;BME280;56258;52.196;13.868;2022-09-23T14:23:51;101312.72;;;22.34;41.46
68399;BME280;56258;52.196;13.868;2022-09-23T14:26:18;101305.59;;;22.33;41.05
68399;BME280;56258;52.196;13.868;2022-09-23T14:28:46;101298.78;;;21.99;41.42
68399;BME280;56258;52.196;13.868;2022-09-23T14:31:13;101302.66;;;21.67;41.98
68399;BME280;56258;52.196;13.868;2022-09-23T14:33:41;101295.25;;;21.61;42.28
68399;BME280;56258;52.196;13.868;2022-09-23T14:36:12;101298.31;;;21.35;43.03
68399;BME280;56258;52.196;13.868;2022-09-23T14:39:10;101298.34;;;21.27;43.74
68399;BME280;56258;52.196;13.868;2022-09-23T14:41:40;101284.31;;;21.23;43.51
68399;BME280;56258;52.196;13.868;2022-09-23T14:44:20;101282.31;;;21.17;44.04
68399;BME280;56258;52.196;13.868;2022-09-23T14:46:57;101276.16;;;21.01;44.01
68399;BME280;56258;52.196;13.868;2022-09-23T14:49:24;101272.44;;;21.02;43.59
68399;BME280;56258;52.196;13.868;2022-09-23T14:51:59;101273.28;;;21.02;44.17
68399;BME280;56258;52.196;13.868;2022-09-23T14:54:49;101273.22;;;20.87;44.31
68399;BME280;56258;52.196;13.868;2022-09-23T14:59:54;101267.81;;;20.79;44.74
68399;BME280;56258;52.196;13.868;2022-09-23T15:02:38;101269.38;;;20.74;44.65
68399;BME280;56258;52.196;13.868;2022-09-23T15:07:36;101271.56;;;20.78;44.43
68399;BME280;56258;52.196;13.868;2022-09-23T15:10:08;101267.53;;;20.74;44.79